sensor_id;sensor_type;location;lat;lon;timestamp;P1;durP1;ratioP1;P2;durP2;ratioP2
78131;SDS011;67381;47.672;9.380;2023-05-07T00:01:58;5.45;;;3.53;;
78131;SDS011;67381;47.672;9.380;2023-05-07T00:04:25;7.13;;;3.55;;
78131;SDS011;67381;47.672;9.380;2023-05-07T00:06:52;6.65;;;3.40;;
78131;SDS011;67381;47.672;9.380;2023-05-07T00:09:19;4.15;;;3.20;;
78131;SDS011;67381;47.672;9.380;2023-05-07T00:11:47;7.15;;;3.85;;
78131;SDS011;67381;47.672;9.380;2023-05-07T00:14:14;4.93;;;3.40;;
78131;SDS011;67381;47.672;9.380;2023-05-07T00:16:41;6.85;;;3.78;;
78131;SDS011;67381;47.672;9.380;2023-05-07T00:19:08;6.70;;;4.18;;
78131;SDS011;67381;47.672;9.380;2023-05-07T00:21:36;6.45;;;3.83;;
78131;SDS011;67381;47.672;9.380;2023-05-07T00:24:03;4.47;;;3.50;;
78131;SDS011;67381;47.672;9.380;2023-05-07T00:26:31;4.75;;;3.15;;
78131;SDS011;67381;47.672;9.380;2023-05-07T00:28:58;5.95;;;3.83;;
78131;SDS011;67381;47.672;9.380;2023-05-07T00:31:25;5.97;;;3.05;;
78131;SDS011;67381;47.672;9.380;2023-05-07T00:33:52;6.85;;;3.20;;
78131;SDS011;67381;47.672;9.380;2023-05-07T00:36:20;4.85;;;3.22;;
78131;SDS011;67381;47.672;9.380;2023-05-07T00:38:47;8.85;;;3.50;;
78131;SDS011;67381;47.672;9.380;2023-05-07T00:41:14;4.40;;;3.30;;
78131;SDS011;67381;47.672;9.380;2023-05-07T00:43:42;4.05;;;2.65;;
78131;SDS011;67381;47.672;9.380;2023-05-07T00:46:09;5.03;;;3.40;;
78131;SDS011;67381;47.672;9.380;2023-05-07T00:48:37;6.32;;;3.47;;
78131;SDS011;67381;47.672;9.380;2023-05-07T00:51:04;7.15;;;3.55;;
78131;SDS011;67381;47.672;9.380;2023-05-07T00:53:31;4.22;;;3.53;;
78131;SDS011;67381;47.672;9.380;2023-05-07T00:55:59;5.15;;;3.30;;
78131;SDS011;67381;47.672;9.380;2023-05-07T00:58:27;4.45;;;3.10;;
78131;SDS011;67381;47.672;9.380;2023-05-07T01:00:54;7.65;;;3.60;;
78131;SDS011;67381;47.672;9.380;2023-05-07T01:03:22;9.45;;;3.25;;
78131;SDS011;67381;47.672;9.380;2023-05-07T01:05:49;5.55;;;3.42;;
78131;SDS011;67381;47.672;9.380;2023-05-07T01:08:17;4.47;;;3.05;;
78131;SDS011;67381;47.672;9.380;2023-05-07T01:10:45;5.13;;;3.10;;
78131;SDS011;67381;47.672;9.380;2023-05-07T01:13:13;6.40;;;3.63;;
78131;SDS011;67381;47.672;9.380;2023-05-07T01:15:41;5.38;;;2.55;;
78131;SDS011;67381;47.672;9.380;2023-05-07T01:18:08;7.72;;;3.25;;
78131;SDS011;67381;47.672;9.380;2023-05-07T01:20:35;5.85;;;3.05;;
78131;SDS011;67381;47.672;9.380;2023-05-07T01:23:02;6.13;;;3.17;;
78131;SDS011;67381;47.672;9.380;2023-05-07T01:25:30;5.55;;;3.38;;
78131;SDS011;67381;47.672;9.380;2023-05-07T01:27:57;6.38;;;3.15;;
78131;SDS011;67381;47.672;9.380;2023-05-07T01:30:26;7.75;;;3.38;;
78131;SDS011;67381;47.672;9.380;2023-05-07T01:33:08;4.70;;;3.28;;
78131;SDS011;67381;47.672;9.380;2023-05-07T01:35:40;6.22;;;3.00;;
78131;SDS011;67381;47.672;9.380;2023-05-07T01:38:09;6.35;;;3.83;;
78131;SDS011;67381;47.672;9.380;2023-05-07T01:40:36;5.05;;;3.67;;
78131;SDS011;67381;47.672;9.380;2023-05-07T01:43:03;4.95;;;3.33;;
78131;SDS011;67381;47.672;9.380;2023-05-07T01:45:32;6.13;;;3.72;;
78131;SDS011;67381;47.672;9.380;2023-05-07T01:47:59;6.30;;;3.47;;
78131;SDS011;67381;47.672;9.380;2023-05-07T01:50:27;5.53;;;3.00;;
78131;SDS011;67381;47.672;9.380;2023-05-07T01:52:54;5.30;;;3.55;;
78131;SDS011;67381;47.672;9.380;2023-05-07T01:55:22;5.45;;;2.92;;
78131;SDS011;67381;47.672;9.380;2023-05-07T01:57:49;5.55;;;3.20;;
78131;SDS011;67381;47.672;9.380;2023-05-07T02:00:16;5.90;;;3.35;;
78131;SDS011;67381;47.672;9.380;2023-05-07T02:02:44;5.43;;;3.55;;
78131;SDS011;67381;47.672;9.380;2023-05-07T02:05:11;4.50;;;3.10;;
78131;SDS011;67381;47.672;9.380;2023-05-07T02:07:39;4.50;;;2.95;;
78131;SDS011;67381;47.672;9.380;2023-05-07T02:10:06;4.40;;;3.03;;
78131;SDS011;67381;47.672;9.380;2023-05-07T02:12:33;7.90;;;2.45;;
78131;SDS011;67381;47.672;9.380;2023-05-07T02:15:01;5.90;;;3.00;;
78131;SDS011;67381;47.672;9.380;2023-05-07T02:17:28;7.35;;;3.45;;
78131;SDS011;67381;47.672;9.380;2023-05-07T02:19:58;5.78;;;3.00;;
78131;SDS011;67381;47.672;9.380;2023-05-07T02:22:28;5.05;;;3.05;;
78131;SDS011;67381;47.672;9.380;2023-05-07T02:24:55;4.68;;;2.88;;
78131;SDS011;67381;47.672;9.380;2023-05-07T02:27:22;4.80;;;3.13;;
78131;SDS011;67381;47.672;9.380;2023-05-07T02:29:50;5.30;;;3.30;;
78131;SDS011;67381;47.672;9.380;2023-05-07T02:32:17;4.80;;;2.90;;
78131;SDS011;67381;47.672;9.380;2023-05-07T02:34:44;8.00;;;3.10;;
78131;SDS011;67381;47.672;9.380;2023-05-07T02:37:11;4.90;;;2.10;;
78131;SDS011;67381;47.672;9.380;2023-05-07T02:39:39;5.88;;;2.92;;
78131;SDS011;67381;47.672;9.380;2023-05-07T02:42:06;8.85;;;3.53;;
78131;SDS011;67381;47.672;9.380;2023-05-07T02:44:33;9.30;;;3.15;;
78131;SDS011;67381;47.672;9.380;2023-05-07T02:47:03;4.60;;;2.97;;
78131;SDS011;67381;47.672;9.380;2023-05-07T02:49:31;4.53;;;2.75;;
78131;SDS011;67381;47.672;9.380;2023-05-07T02:51:58;6.63;;;3.20;;
78131;SDS011;67381;47.672;9.380;2023-05-07T02:54:25;4.68;;;3.03;;
78131;SDS011;67381;47.672;9.380;2023-05-07T02:56:52;5.53;;;2.55;;
78131;SDS011;67381;47.672;9.380;2023-05-07T02:59:20;4.15;;;2.80;;
78131;SDS011;67381;47.672;9.380;2023-05-07T03:01:47;6.13;;;3.40;;
78131;SDS011;67381;47.672;9.380;2023-05-07T03:04:15;9.38;;;3.05;;
78131;SDS011;67381;47.672;9.380;2023-05-07T03:06:42;4.00;;;3.00;;
78131;SDS011;67381;47.672;9.380;2023-05-07T03:09:09;5.97;;;4.20;;
78131;SDS011;67381;47.672;9.380;2023-05-07T03:11:37;5.38;;;3.83;;
78131;SDS011;67381;47.672;9.380;2023-05-07T03:14:05;7.03;;;4.28;;
78131;SDS011;67381;47.672;9.380;2023-05-07T03:16:32;6.15;;;4.97;;
78131;SDS011;67381;47.672;9.380;2023-05-07T03:18:59;6.07;;;4.65;;
78131;SDS011;67381;47.672;9.380;2023-05-07T03:21:27;7.72;;;5.35;;
78131;SDS011;67381;47.672;9.380;2023-05-07T03:23:54;7.68;;;5.22;;
78131;SDS011;67381;47.672;9.380;2023-05-07T03:26:21;5.95;;;5.03;;
78131;SDS011;67381;47.672;9.380;2023-05-07T03:28:49;6.80;;;4.15;;
78131;SDS011;67381;47.672;9.380;2023-05-07T03:31:16;5.93;;;3.97;;
78131;SDS011;67381;47.672;9.380;2023-05-07T03:33:50;5.22;;;3.70;;
78131;SDS011;67381;47.672;9.380;2023-05-07T03:36:19;6.00;;;4.20;;
78131;SDS011;67381;47.672;9.380;2023-05-07T03:38:46;6.13;;;4.80;;
78131;SDS011;67381;47.672;9.380;2023-05-07T03:41:14;6.40;;;4.95;;
78131;SDS011;67381;47.672;9.380;2023-05-07T03:43:41;6.10;;;3.95;;
78131;SDS011;67381;47.672;9.380;2023-05-07T03:46:08;6.22;;;4.85;;
78131;SDS011;67381;47.672;9.380;2023-05-07T03:48:36;6.30;;;4.47;;
78131;SDS011;67381;47.672;9.380;2023-05-07T03:51:03;7.63;;;4.82;;
78131;SDS011;67381;47.672;9.380;2023-05-07T03:53:30;5.47;;;4.07;;
78131;SDS011;67381;47.672;9.380;2023-05-07T03:55:57;5.95;;;3.60;;
78131;SDS011;67381;47.672;9.380;2023-05-07T03:58:25;9.60;;;4.35;;
78131;SDS011;67381;47.672;9.380;2023-05-07T04:00:52;5.93;;;3.58;;
78131;SDS011;67381;47.672;9.380;2023-05-07T04:03:19;5.50;;;3.72;;
78131;SDS011;67381;47.672;9.380;2023-05-07T04:05:46;7.05;;;3.83;;
78131;SDS011;67381;47.672;9.380;2023-05-07T04:08:13;5.97;;;3.45;;
78131;SDS011;67381;47.672;9.380;2023-05-07T04:10:41;6.60;;;3.97;;
78131;SDS011;67381;47.672;9.380;2023-05-07T04:13:08;5.53;;;4.25;;
78131;SDS011;67381;47.672;9.380;2023-05-07T04:15:35;6.35;;;4.30;;
78131;SDS011;67381;47.672;9.380;2023-05-07T04:18:03;6.00;;;4.63;;
78131;SDS011;67381;47.672;9.380;2023-05-07T04:20:30;4.95;;;3.88;;
78131;SDS011;67381;47.672;9.380;2023-05-07T04:22:57;10.13;;;4.25;;
78131;SDS011;67381;47.672;9.380;2023-05-07T04:25:24;6.05;;;3.17;;
78131;SDS011;67381;47.672;9.380;2023-05-07T04:27:53;11.18;;;4.18;;
78131;SDS011;67381;47.672;9.380;2023-05-07T04:30:21;6.32;;;3.88;;
78131;SDS011;67381;47.672;9.380;2023-05-07T04:32:49;4.85;;;3.33;;
78131;SDS011;67381;47.672;9.380;2023-05-07T04:35:16;7.20;;;4.22;;
78131;SDS011;67381;47.672;9.380;2023-05-07T04:37:44;7.05;;;4.22;;
78131;SDS011;67381;47.672;9.380;2023-05-07T04:40:11;8.07;;;4.40;;
78131;SDS011;67381;47.672;9.380;2023-05-07T04:42:38;5.43;;;3.40;;
78131;SDS011;67381;47.672;9.380;2023-05-07T04:45:06;5.55;;;4.28;;
78131;SDS011;67381;47.672;9.380;2023-05-07T04:47:33;5.53;;;4.50;;
78131;SDS011;67381;47.672;9.380;2023-05-07T04:50:00;6.47;;;5.05;;
78131;SDS011;67381;47.672;9.380;2023-05-07T04:52:28;6.15;;;4.15;;
78131;SDS011;67381;47.672;9.380;2023-05-07T04:54:55;6.95;;;3.95;;
78131;SDS011;67381;47.672;9.380;2023-05-07T04:57:22;6.10;;;5.28;;
78131;SDS011;67381;47.672;9.380;2023-05-07T04:59:49;6.50;;;4.80;;
78131;SDS011;67381;47.672;9.380;2023-05-07T05:02:17;5.45;;;4.05;;
78131;SDS011;67381;47.672;9.380;2023-05-07T05:04:45;6.95;;;3.97;;
78131;SDS011;67381;47.672;9.380;2023-05-07T05:07:13;5.88;;;4.28;;
78131;SDS011;67381;47.672;9.380;2023-05-07T05:09:40;7.65;;;4.60;;
78131;SDS011;67381;47.672;9.380;2023-05-07T05:12:07;5.32;;;4.57;;
78131;SDS011;67381;47.672;9.380;2023-05-07T05:14:36;8.60;;;5.40;;
78131;SDS011;67381;47.672;9.380;2023-05-07T05:17:03;6.32;;;5.05;;
78131;SDS011;67381;47.672;9.380;2023-05-07T05:19:30;6.18;;;4.63;;
78131;SDS011;67381;47.672;9.380;2023-05-07T05:21:57;9.40;;;5.50;;
78131;SDS011;67381;47.672;9.380;2023-05-07T05:24:24;6.28;;;4.93;;
78131;SDS011;67381;47.672;9.380;2023-05-07T05:26:54;7.13;;;4.63;;
78131;SDS011;67381;47.672;9.380;2023-05-07T05:29:22;6.25;;;4.85;;
78131;SDS011;67381;47.672;9.380;2023-05-07T05:31:49;7.10;;;4.88;;
78131;SDS011;67381;47.672;9.380;2023-05-07T05:34:17;7.65;;;5.03;;
78131;SDS011;67381;47.672;9.380;2023-05-07T05:36:46;8.75;;;5.80;;
78131;SDS011;67381;47.672;9.380;2023-05-07T05:39:13;6.57;;;4.95;;
78131;SDS011;67381;47.672;9.380;2023-05-07T05:41:41;6.22;;;4.32;;
78131;SDS011;67381;47.672;9.380;2023-05-07T05:44:08;6.15;;;4.45;;
78131;SDS011;67381;47.672;9.380;2023-05-07T05:46:35;7.10;;;4.97;;
78131;SDS011;67381;47.672;9.380;2023-05-07T05:49:03;7.45;;;4.05;;
78131;SDS011;67381;47.672;9.380;2023-05-07T05:51:30;6.18;;;4.93;;
78131;SDS011;67381;47.672;9.380;2023-05-07T05:53:57;8.18;;;4.82;;
78131;SDS011;67381;47.672;9.380;2023-05-07T05:56:24;4.97;;;3.22;;
78131;SDS011;67381;47.672;9.380;2023-05-07T05:58:52;9.35;;;3.85;;
78131;SDS011;67381;47.672;9.380;2023-05-07T06:01:19;6.30;;;3.70;;
78131;SDS011;67381;47.672;9.380;2023-05-07T06:03:47;4.38;;;3.13;;
78131;SDS011;67381;47.672;9.380;2023-05-07T06:06:14;13.20;;;3.40;;
78131;SDS011;67381;47.672;9.380;2023-05-07T06:08:41;5.13;;;2.97;;
78131;SDS011;67381;47.672;9.380;2023-05-07T06:11:09;3.70;;;2.90;;
78131;SDS011;67381;47.672;9.380;2023-05-07T06:13:36;5.68;;;2.85;;
78131;SDS011;67381;47.672;9.380;2023-05-07T06:16:03;4.80;;;2.50;;
78131;SDS011;67381;47.672;9.380;2023-05-07T06:18:31;6.13;;;4.60;;
78131;SDS011;67381;47.672;9.380;2023-05-07T06:20:58;5.82;;;3.55;;
78131;SDS011;67381;47.672;9.380;2023-05-07T06:23:25;4.55;;;3.50;;
78131;SDS011;67381;47.672;9.380;2023-05-07T06:25:52;6.07;;;3.30;;
78131;SDS011;67381;47.672;9.380;2023-05-07T06:28:20;6.20;;;3.13;;
78131;SDS011;67381;47.672;9.380;2023-05-07T06:30:47;5.55;;;3.33;;
78131;SDS011;67381;47.672;9.380;2023-05-07T06:33:16;5.38;;;3.35;;
78131;SDS011;67381;47.672;9.380;2023-05-07T06:35:43;6.40;;;3.83;;
78131;SDS011;67381;47.672;9.380;2023-05-07T06:38:11;4.85;;;3.50;;
78131;SDS011;67381;47.672;9.380;2023-05-07T06:40:39;4.47;;;3.00;;
78131;SDS011;67381;47.672;9.380;2023-05-07T06:43:06;5.97;;;3.45;;
78131;SDS011;67381;47.672;9.380;2023-05-07T06:45:33;6.22;;;4.20;;
78131;SDS011;67381;47.672;9.380;2023-05-07T06:48:00;5.95;;;3.40;;
78131;SDS011;67381;47.672;9.380;2023-05-07T06:50:28;6.50;;;3.08;;
78131;SDS011;67381;47.672;9.380;2023-05-07T06:52:55;4.93;;;3.30;;
78131;SDS011;67381;47.672;9.380;2023-05-07T06:55:22;4.95;;;3.47;;
78131;SDS011;67381;47.672;9.380;2023-05-07T06:57:49;5.82;;;4.03;;
78131;SDS011;67381;47.672;9.380;2023-05-07T07:00:16;6.88;;;4.07;;
78131;SDS011;67381;47.672;9.380;2023-05-07T07:02:44;5.15;;;3.90;;
78131;SDS011;67381;47.672;9.380;2023-05-07T07:05:11;7.32;;;4.03;;
78131;SDS011;67381;47.672;9.380;2023-05-07T07:07:38;6.43;;;3.85;;
78131;SDS011;67381;47.672;9.380;2023-05-07T07:10:06;5.60;;;3.90;;
78131;SDS011;67381;47.672;9.380;2023-05-07T07:12:33;9.48;;;3.85;;
78131;SDS011;67381;47.672;9.380;2023-05-07T07:15:00;7.03;;;4.40;;
78131;SDS011;67381;47.672;9.380;2023-05-07T07:17:29;8.13;;;4.13;;
78131;SDS011;67381;47.672;9.380;2023-05-07T07:19:56;7.50;;;4.32;;
78131;SDS011;67381;47.672;9.380;2023-05-07T07:22:24;6.47;;;4.60;;
78131;SDS011;67381;47.672;9.380;2023-05-07T07:24:51;6.82;;;4.47;;
78131;SDS011;67381;47.672;9.380;2023-05-07T07:27:18;10.57;;;4.53;;
78131;SDS011;67381;47.672;9.380;2023-05-07T07:29:45;6.68;;;4.32;;
78131;SDS011;67381;47.672;9.380;2023-05-07T07:32:12;5.57;;;4.03;;
78131;SDS011;67381;47.672;9.380;2023-05-07T07:34:40;6.32;;;4.82;;
78131;SDS011;67381;47.672;9.380;2023-05-07T07:37:07;5.97;;;4.82;;
78131;SDS011;67381;47.672;9.380;2023-05-07T07:39:34;7.05;;;4.40;;
78131;SDS011;67381;47.672;9.380;2023-05-07T07:42:04;8.55;;;3.80;;
78131;SDS011;67381;47.672;9.380;2023-05-07T07:44:31;6.65;;;4.57;;
78131;SDS011;67381;47.672;9.380;2023-05-07T07:46:58;5.55;;;4.35;;
78131;SDS011;67381;47.672;9.380;2023-05-07T07:49:26;6.43;;;4.60;;
78131;SDS011;67381;47.672;9.380;2023-05-07T07:51:53;7.88;;;4.57;;
78131;SDS011;67381;47.672;9.380;2023-05-07T07:54:21;8.10;;;4.38;;
78131;SDS011;67381;47.672;9.380;2023-05-07T07:56:48;7.72;;;4.65;;
78131;SDS011;67381;47.672;9.380;2023-05-07T07:59:16;5.35;;;4.00;;
78131;SDS011;67381;47.672;9.380;2023-05-07T08:01:45;5.65;;;4.13;;
78131;SDS011;67381;47.672;9.380;2023-05-07T08:04:15;5.72;;;4.30;;
78131;SDS011;67381;47.672;9.380;2023-05-07T08:06:42;7.13;;;3.83;;
78131;SDS011;67381;47.672;9.380;2023-05-07T08:09:09;7.07;;;4.38;;
78131;SDS011;67381;47.672;9.380;2023-05-07T08:11:36;7.13;;;3.97;;
78131;SDS011;67381;47.672;9.380;2023-05-07T08:14:04;5.22;;;3.75;;
78131;SDS011;67381;47.672;9.380;2023-05-07T08:16:31;5.50;;;4.00;;
78131;SDS011;67381;47.672;9.380;2023-05-07T08:18:59;5.45;;;3.70;;
78131;SDS011;67381;47.672;9.380;2023-05-07T08:21:26;5.60;;;3.80;;
78131;SDS011;67381;47.672;9.380;2023-05-07T08:23:53;4.95;;;4.05;;
78131;SDS011;67381;47.672;9.380;2023-05-07T08:26:20;6.78;;;3.97;;
78131;SDS011;67381;47.672;9.380;2023-05-07T08:28:48;10.32;;;3.55;;
78131;SDS011;67381;47.672;9.380;2023-05-07T08:31:15;5.57;;;3.92;;
78131;SDS011;67381;47.672;9.380;2023-05-07T08:33:42;5.90;;;3.80;;
78131;SDS011;67381;47.672;9.380;2023-05-07T08:36:10;5.78;;;3.45;;
78131;SDS011;67381;47.672;9.380;2023-05-07T08:38:37;7.07;;;4.15;;
78131;SDS011;67381;47.672;9.380;2023-05-07T08:41:05;5.95;;;3.58;;
78131;SDS011;67381;47.672;9.380;2023-05-07T08:43:34;6.57;;;4.70;;
78131;SDS011;67381;47.672;9.380;2023-05-07T08:46:03;6.97;;;4.90;;
78131;SDS011;67381;47.672;9.380;2023-05-07T08:48:31;5.43;;;4.72;;
78131;SDS011;67381;47.672;9.380;2023-05-07T08:50:59;5.63;;;3.85;;
78131;SDS011;67381;47.672;9.380;2023-05-07T08:53:26;6.95;;;4.40;;
78131;SDS011;67381;47.672;9.380;2023-05-07T08:55:54;9.40;;;4.07;;
78131;SDS011;67381;47.672;9.380;2023-05-07T08:58:21;6.13;;;4.10;;
78131;SDS011;67381;47.672;9.380;2023-05-07T09:00:49;8.38;;;5.10;;
78131;SDS011;67381;47.672;9.380;2023-05-07T09:03:17;6.35;;;4.22;;
78131;SDS011;67381;47.672;9.380;2023-05-07T09:05:44;6.05;;;4.40;;
78131;SDS011;67381;47.672;9.380;2023-05-07T09:08:14;5.30;;;3.90;;
78131;SDS011;67381;47.672;9.380;2023-05-07T09:10:41;7.35;;;4.28;;
78131;SDS011;67381;47.672;9.380;2023-05-07T09:13:08;6.13;;;4.60;;
78131;SDS011;67381;47.672;9.380;2023-05-07T09:15:37;4.85;;;3.88;;
78131;SDS011;67381;47.672;9.380;2023-05-07T09:18:05;6.70;;;4.10;;
78131;SDS011;67381;47.672;9.380;2023-05-07T09:20:32;5.22;;;3.92;;
78131;SDS011;67381;47.672;9.380;2023-05-07T09:22:59;4.85;;;3.88;;
78131;SDS011;67381;47.672;9.380;2023-05-07T09:25:33;6.30;;;4.88;;
78131;SDS011;67381;47.672;9.380;2023-05-07T09:28:01;7.55;;;4.80;;
78131;SDS011;67381;47.672;9.380;2023-05-07T09:30:30;6.90;;;5.15;;
78131;SDS011;67381;47.672;9.380;2023-05-07T09:32:59;7.50;;;5.10;;
78131;SDS011;67381;47.672;9.380;2023-05-07T09:35:27;7.85;;;4.90;;
78131;SDS011;67381;47.672;9.380;2023-05-07T09:37:55;8.57;;;4.63;;
78131;SDS011;67381;47.672;9.380;2023-05-07T09:40:24;8.30;;;5.30;;
78131;SDS011;67381;47.672;9.380;2023-05-07T09:42:55;6.55;;;4.95;;
78131;SDS011;67381;47.672;9.380;2023-05-07T09:45:24;7.95;;;6.00;;
78131;SDS011;67381;47.672;9.380;2023-05-07T09:47:53;6.78;;;5.22;;
78131;SDS011;67381;47.672;9.380;2023-05-07T09:50:25;8.15;;;5.10;;
78131;SDS011;67381;47.672;9.380;2023-05-07T09:52:55;7.70;;;4.95;;
78131;SDS011;67381;47.672;9.380;2023-05-07T09:55:23;6.70;;;5.28;;
78131;SDS011;67381;47.672;9.380;2023-05-07T09:57:50;7.03;;;4.35;;
78131;SDS011;67381;47.672;9.380;2023-05-07T10:00:20;12.30;;;5.00;;
78131;SDS011;67381;47.672;9.380;2023-05-07T10:02:48;5.93;;;4.35;;
78131;SDS011;67381;47.672;9.380;2023-05-07T10:05:18;7.55;;;3.70;;
78131;SDS011;67381;47.672;9.380;2023-05-07T10:07:47;9.77;;;4.25;;
78131;SDS011;67381;47.672;9.380;2023-05-07T10:10:15;5.20;;;3.47;;
78131;SDS011;67381;47.672;9.380;2023-05-07T10:12:42;5.85;;;4.68;;
78131;SDS011;67381;47.672;9.380;2023-05-07T10:15:10;8.10;;;4.43;;
78131;SDS011;67381;47.672;9.380;2023-05-07T10:17:39;6.60;;;4.80;;
78131;SDS011;67381;47.672;9.380;2023-05-07T10:20:07;10.48;;;5.03;;
78131;SDS011;67381;47.672;9.380;2023-05-07T10:22:41;7.65;;;4.13;;
78131;SDS011;67381;47.672;9.380;2023-05-07T10:25:16;8.52;;;5.00;;
78131;SDS011;67381;47.672;9.380;2023-05-07T10:27:45;8.38;;;5.72;;
78131;SDS011;67381;47.672;9.380;2023-05-07T10:32:56;7.38;;;4.38;;
78131;SDS011;67381;47.672;9.380;2023-05-07T10:35:36;9.48;;;6.20;;
78131;SDS011;67381;47.672;9.380;2023-05-07T10:38:05;7.65;;;5.28;;
78131;SDS011;67381;47.672;9.380;2023-05-07T10:40:32;7.40;;;6.10;;
78131;SDS011;67381;47.672;9.380;2023-05-07T10:43:00;6.93;;;5.72;;
78131;SDS011;67381;47.672;9.380;2023-05-07T10:45:29;8.80;;;6.40;;
78131;SDS011;67381;47.672;9.380;2023-05-07T10:48:12;7.43;;;5.85;;
78131;SDS011;67381;47.672;9.380;2023-05-07T10:50:53;10.27;;;5.53;;
78131;SDS011;67381;47.672;9.380;2023-05-07T10:53:48;8.23;;;5.70;;
78131;SDS011;67381;47.672;9.380;2023-05-07T10:58:45;9.20;;;5.63;;
78131;SDS011;67381;47.672;9.380;2023-05-07T11:01:13;9.07;;;6.05;;
78131;SDS011;67381;47.672;9.380;2023-05-07T11:04:28;8.50;;;5.88;;
78131;SDS011;67381;47.672;9.380;2023-05-07T11:06:41;8.68;;;5.82;;
78131;SDS011;67381;47.672;9.380;2023-05-07T11:09:08;8.93;;;6.63;;
78131;SDS011;67381;47.672;9.380;2023-05-07T11:11:45;8.73;;;5.65;;
78131;SDS011;67381;47.672;9.380;2023-05-07T11:14:14;9.55;;;6.35;;
78131;SDS011;67381;47.672;9.380;2023-05-07T11:17:10;7.63;;;6.28;;
78131;SDS011;67381;47.672;9.380;2023-05-07T11:19:54;8.60;;;5.88;;
78131;SDS011;67381;47.672;9.380;2023-05-07T11:25:03;8.25;;;5.88;;
78131;SDS011;67381;47.672;9.380;2023-05-07T11:27:30;7.38;;;5.63;;
78131;SDS011;67381;47.672;9.380;2023-05-07T11:29:58;8.52;;;5.65;;
78131;SDS011;67381;47.672;9.380;2023-05-07T11:32:28;9.75;;;5.65;;
78131;SDS011;67381;47.672;9.380;2023-05-07T11:34:57;8.80;;;5.15;;
78131;SDS011;67381;47.672;9.380;2023-05-07T11:37:26;9.52;;;5.38;;
78131;SDS011;67381;47.672;9.380;2023-05-07T11:45:01;7.97;;;4.55;;
78131;SDS011;67381;47.672;9.380;2023-05-07T11:47:30;6.88;;;4.25;;
78131;SDS011;67381;47.672;9.380;2023-05-07T11:50:02;8.13;;;4.30;;
78131;SDS011;67381;47.672;9.380;2023-05-07T11:52:31;9.02;;;4.38;;
78131;SDS011;67381;47.672;9.380;2023-05-07T11:54:59;6.43;;;5.13;;
78131;SDS011;67381;47.672;9.380;2023-05-07T11:57:27;7.57;;;4.70;;
78131;SDS011;67381;47.672;9.380;2023-05-07T11:59:56;7.57;;;4.75;;
78131;SDS011;67381;47.672;9.380;2023-05-07T12:02:24;11.70;;;4.13;;
78131;SDS011;67381;47.672;9.380;2023-05-07T12:04:52;5.75;;;3.53;;
78131;SDS011;67381;47.672;9.380;2023-05-07T12:07:20;9.68;;;4.88;;
78131;SDS011;67381;47.672;9.380;2023-05-07T12:09:47;10.13;;;5.80;;
78131;SDS011;67381;47.672;9.380;2023-05-07T12:12:14;7.43;;;4.97;;
78131;SDS011;67381;47.672;9.380;2023-05-07T12:14:44;7.22;;;4.60;;
78131;SDS011;67381;47.672;9.380;2023-05-07T12:17:13;8.98;;;4.38;;
78131;SDS011;67381;47.672;9.380;2023-05-07T12:19:42;6.63;;;4.32;;
78131;SDS011;67381;47.672;9.380;2023-05-07T12:22:10;10.05;;;4.43;;
78131;SDS011;67381;47.672;9.380;2023-05-07T12:24:44;6.20;;;4.40;;
78131;SDS011;67381;47.672;9.380;2023-05-07T12:27:13;8.38;;;4.07;;
78131;SDS011;67381;47.672;9.380;2023-05-07T12:29:44;6.65;;;3.55;;
78131;SDS011;67381;47.672;9.380;2023-05-07T12:32:18;5.88;;;4.05;;
78131;SDS011;67381;47.672;9.380;2023-05-07T12:34:46;5.35;;;3.65;;
78131;SDS011;67381;47.672;9.380;2023-05-07T12:37:16;5.82;;;3.47;;
78131;SDS011;67381;47.672;9.380;2023-05-07T12:40:03;8.98;;;4.57;;
78131;SDS011;67381;47.672;9.380;2023-05-07T12:42:37;6.47;;;4.55;;
78131;SDS011;67381;47.672;9.380;2023-05-07T12:45:12;6.90;;;5.10;;
78131;SDS011;67381;47.672;9.380;2023-05-07T12:47:44;7.15;;;3.97;;
78131;SDS011;67381;47.672;9.380;2023-05-07T12:50:12;5.10;;;3.47;;
78131;SDS011;67381;47.672;9.380;2023-05-07T12:52:41;6.38;;;3.25;;
78131;SDS011;67381;47.672;9.380;2023-05-07T12:55:11;7.25;;;4.72;;
78131;SDS011;67381;47.672;9.380;2023-05-07T12:57:41;6.80;;;4.22;;
78131;SDS011;67381;47.672;9.380;2023-05-07T13:00:09;7.18;;;3.88;;
78131;SDS011;67381;47.672;9.380;2023-05-07T13:02:38;6.28;;;3.97;;
78131;SDS011;67381;47.672;9.380;2023-05-07T13:05:06;5.53;;;3.80;;
78131;SDS011;67381;47.672;9.380;2023-05-07T13:07:34;10.23;;;4.45;;
78131;SDS011;67381;47.672;9.380;2023-05-07T13:10:01;5.38;;;4.55;;
78131;SDS011;67381;47.672;9.380;2023-05-07T13:12:29;4.95;;;3.70;;
78131;SDS011;67381;47.672;9.380;2023-05-07T13:14:56;4.82;;;3.35;;
78131;SDS011;67381;47.672;9.380;2023-05-07T13:17:23;6.72;;;4.22;;
78131;SDS011;67381;47.672;9.380;2023-05-07T13:19:51;6.10;;;3.60;;
78131;SDS011;67381;47.672;9.380;2023-05-07T13:22:18;5.80;;;3.40;;
78131;SDS011;67381;47.672;9.380;2023-05-07T13:24:45;5.47;;;3.60;;
78131;SDS011;67381;47.672;9.380;2023-05-07T13:27:12;4.47;;;3.22;;
78131;SDS011;67381;47.672;9.380;2023-05-07T13:29:40;5.32;;;3.38;;
78131;SDS011;67381;47.672;9.380;2023-05-07T13:32:07;6.60;;;3.42;;
78131;SDS011;67381;47.672;9.380;2023-05-07T13:34:34;5.28;;;3.33;;
78131;SDS011;67381;47.672;9.380;2023-05-07T13:37:02;7.80;;;3.63;;
78131;SDS011;67381;47.672;9.380;2023-05-07T13:39:29;6.32;;;3.40;;
78131;SDS011;67381;47.672;9.380;2023-05-07T13:41:56;6.70;;;2.88;;
78131;SDS011;67381;47.672;9.380;2023-05-07T13:44:23;5.70;;;3.13;;
78131;SDS011;67381;47.672;9.380;2023-05-07T13:46:50;5.00;;;3.47;;
78131;SDS011;67381;47.672;9.380;2023-05-07T13:49:18;3.53;;;2.58;;
78131;SDS011;67381;47.672;9.380;2023-05-07T13:51:45;3.60;;;2.88;;
78131;SDS011;67381;47.672;9.380;2023-05-07T13:54:12;3.30;;;2.40;;
78131;SDS011;67381;47.672;9.380;2023-05-07T13:56:39;3.97;;;2.20;;
78131;SDS011;67381;47.672;9.380;2023-05-07T13:59:07;5.78;;;2.88;;
78131;SDS011;67381;47.672;9.380;2023-05-07T14:01:35;4.22;;;3.08;;
78131;SDS011;67381;47.672;9.380;2023-05-07T14:04:02;5.05;;;3.72;;
78131;SDS011;67381;47.672;9.380;2023-05-07T14:06:29;6.13;;;1.90;;
78131;SDS011;67381;47.672;9.380;2023-05-07T14:08:56;5.30;;;2.60;;
78131;SDS011;67381;47.672;9.380;2023-05-07T14:11:24;7.97;;;3.10;;
78131;SDS011;67381;47.672;9.380;2023-05-07T14:13:52;7.45;;;2.95;;
78131;SDS011;67381;47.672;9.380;2023-05-07T14:16:19;5.18;;;2.53;;
78131;SDS011;67381;47.672;9.380;2023-05-07T14:18:46;6.50;;;3.05;;
78131;SDS011;67381;47.672;9.380;2023-05-07T14:21:13;3.97;;;2.67;;
78131;SDS011;67381;47.672;9.380;2023-05-07T14:23:41;5.93;;;2.03;;
78131;SDS011;67381;47.672;9.380;2023-05-07T14:26:08;5.28;;;2.20;;
78131;SDS011;67381;47.672;9.380;2023-05-07T14:28:35;5.07;;;2.65;;
78131;SDS011;67381;47.672;9.380;2023-05-07T14:31:02;4.50;;;2.00;;
78131;SDS011;67381;47.672;9.380;2023-05-07T14:33:29;5.25;;;3.10;;
78131;SDS011;67381;47.672;9.380;2023-05-07T14:35:57;3.75;;;2.42;;
78131;SDS011;67381;47.672;9.380;2023-05-07T14:38:24;10.85;;;2.83;;
78131;SDS011;67381;47.672;9.380;2023-05-07T14:40:51;3.28;;;2.42;;
78131;SDS011;67381;47.672;9.380;2023-05-07T14:43:22;6.68;;;2.65;;
78131;SDS011;67381;47.672;9.380;2023-05-07T14:45:49;5.55;;;3.00;;
78131;SDS011;67381;47.672;9.380;2023-05-07T14:48:16;6.55;;;2.90;;
78131;SDS011;67381;47.672;9.380;2023-05-07T14:50:47;4.65;;;2.72;;
78131;SDS011;67381;47.672;9.380;2023-05-07T14:53:15;4.95;;;3.20;;
78131;SDS011;67381;47.672;9.380;2023-05-07T14:55:42;3.85;;;2.70;;
78131;SDS011;67381;47.672;9.380;2023-05-07T14:58:10;9.07;;;2.40;;
78131;SDS011;67381;47.672;9.380;2023-05-07T15:00:37;8.25;;;2.40;;
78131;SDS011;67381;47.672;9.380;2023-05-07T15:03:06;3.22;;;2.22;;
78131;SDS011;67381;47.672;9.380;2023-05-07T15:05:35;5.40;;;1.65;;
78131;SDS011;67381;47.672;9.380;2023-05-07T15:08:02;3.25;;;1.80;;